Terminal Aerodrome Forecast
Issued by NWS Jackson, MS

Home | Current Version | Previous Version | Text Only | Print | Product List | Glossary On
Versions: 1 2 3 4 5 6 7 8 9 10 11 12 13 14 15 16 17
113
FTUS44 KMEG 281741
TAFTUP
TAF
KTUP 281741Z 2818/2918 25009KT P6SM VCTS SCT025CB BKN035
      TEMPO 2818/2822 VRB10KT 3SM TSRA BKN025CB
     FM282300 21003KT P6SM SCT040 BKN200
     FM290600 VRB03KT 6SM BR SCT015
      TEMPO 2909/2913 3SM BR OVC015
     FM291400 26007KT P6SM VCSH BKN025=

USA.gov is the U.S. government's official web portal to all federal, state and local government web resources and services.